Time;durP1;ratioP1;P1;durP2;ratioP2;P2;SDS_P1;SDS_P2;PMS_P1;PMS_P2;Temp;Humidity;BMP_temperature;BMP_pressure;BME280_temperature;BME280_humidity;BME280_pressure;Samples;Min_cycle;Max_cycle;Signal;HPM_P1;HPM_P2
2023/07/27 00:01:42;;;;;;;27.20;25.13;;;;;;;;;;5097181;28;20435;-87
2023/07/27 00:04:09;;;;;;;27.47;25.67;;;;;;;;;;5097370;28;20463;-87
2023/07/27 00:06:36;;;;;;;26.57;24.73;;;;;;;;;;5096761;28;20449;-87
2023/07/27 00:09:04;;;;;;;26.60;24.80;;;;;;;;;;5096634;28;20466;-87
2023/07/27 00:11:31;;;;;;;26.27;24.50;;;;;;;;;;5096547;28;20507;-87
2023/07/27 00:13:59;;;;;;;26.93;25.20;;;;;;;;;;5096561;28;20449;-87
2023/07/27 00:16:26;;;;;;;25.80;24.10;;;;;;;;;;5096496;28;20423;-87
2023/07/27 00:18:53;;;;;;;26.30;24.70;;;;;;;;;;5096067;28;20395;-87
2023/07/27 00:21:21;;;;;;;27.13;24.87;;;;;;;;;;5096750;28;20803;-88
2023/07/27 00:23:48;;;;;;;27.63;25.83;;;;;;;;;;5097100;28;20896;-87
2023/07/27 00:26:15;;;;;;;26.47;24.77;;;;;;;;;;5097239;28;20514;-87
2023/07/27 00:28:42;;;;;;;26.63;24.93;;;;;;;;;;5095569;28;20472;-87
2023/07/27 00:31:10;;;;;;;26.23;24.63;;;;;;;;;;5096827;28;20501;-87
2023/07/27 00:33:37;;;;;;;27.23;25.43;;;;;;;;;;5097045;28;20926;-86
2023/07/27 00:36:04;;;;;;;25.83;24.17;;;;;;;;;;5096521;28;20479;-87
2023/07/27 00:38:31;;;;;;;25.70;24.20;;;;;;;;;;5099125;28;20436;-87
2023/07/27 00:40:59;;;;;;;26.00;24.20;;;;;;;;;;5100371;28;20473;-87
2023/07/27 00:43:26;;;;;;;26.60;24.80;;;;;;;;;;5100325;28;20448;-87
2023/07/27 00:45:53;;;;;;;26.80;24.97;;;;;;;;;;5099972;28;20467;-87
2023/07/27 00:48:21;;;;;;;25.13;23.43;;;;;;;;;;5099079;28;20467;-88
2023/07/27 00:50:49;;;;;;;26.30;24.50;;;;;;;;;;5099787;28;20473;-86
2023/07/27 00:53:16;;;;;;;25.30;23.70;;;;;;;;;;5099856;28;20423;-87
2023/07/27 00:55:44;;;;;;;27.00;25.10;;;;;;;;;;5100251;28;20476;-87
2023/07/27 00:58:12;;;;;;;26.87;25.07;;;;;;;;;;5099140;28;20439;-87
2023/07/27 01:00:39;;;;;;;27.03;25.27;;;;;;;;;;5098821;28;20427;-86
2023/07/27 01:03:06;;;;;;;25.17;23.43;;;;;;;;;;5099216;28;20419;-87
2023/07/27 01:05:35;;;;;;;25.20;23.57;;;;;;;;;;5099200;28;20480;-87
2023/07/27 01:08:02;;;;;;;26.20;24.40;;;;;;;;;;5099217;28;20432;-87
2023/07/27 01:10:34;;;;;;;27.10;25.30;;;;;;;;;;5098838;28;20448;-87
2023/07/27 01:13:04;;;;;;;25.43;23.53;;;;;;;;;;5099939;28;20434;-88
2023/07/27 01:15:34;;;;;;;25.00;23.40;;;;;;;;;;5099421;28;20429;-87
2023/07/27 01:18:04;;;;;;;26.10;24.33;;;;;;;;;;5099800;28;20411;-87
2023/07/27 01:20:35;;;;;;;24.63;23.13;;;;;;;;;;5099253;28;20460;-87
2023/07/27 01:23:30;;;;;;;24.70;23.27;;;;;;;;;;5100601;28;20414;-87
2023/07/27 01:26:20;;;;;;;25.53;24.00;;;;;;;;;;5100083;28;20485;-86
2023/07/27 01:28:56;;;;;;;25.70;24.00;;;;;;;;;;5099530;28;20507;-87
2023/07/27 01:31:25;;;;;;;25.13;23.60;;;;;;;;;;5099308;28;20428;-87
2023/07/27 01:33:57;;;;;;;25.20;23.50;;;;;;;;;;5099856;28;20424;-87
2023/07/27 01:36:26;;;;;;;26.40;24.70;;;;;;;;;;5100035;28;20428;-87
2023/07/27 01:38:53;;;;;;;26.60;24.70;;;;;;;;;;5099079;28;20948;-87
2023/07/27 01:41:23;;;;;;;25.70;23.83;;;;;;;;;;5099983;28;20501;-87
2023/07/27 01:43:51;;;;;;;25.57;23.87;;;;;;;;;;5098900;28;20461;-87
2023/07/27 01:46:19;;;;;;;25.77;23.40;;;;;;;;;;5099408;28;20481;-87
2023/07/27 01:48:48;;;;;;;24.80;23.20;;;;;;;;;;5099089;28;20463;-86
2023/07/27 01:51:15;;;;;;;25.87;24.13;;;;;;;;;;5099264;28;20481;-87
2023/07/27 01:53:43;;;;;;;26.00;24.30;;;;;;;;;;5099689;28;20903;-87
2023/07/27 01:56:12;;;;;;;25.30;23.80;;;;;;;;;;5098716;28;20419;-88
2023/07/27 01:58:39;;;;;;;26.80;24.97;;;;;;;;;;5098216;28;20444;-87
2023/07/27 02:01:07;;;;;;;25.03;23.40;;;;;;;;;;5098235;28;20455;-87
2023/07/27 02:03:34;;;;;;;27.03;25.23;;;;;;;;;;5098808;28;20531;-87
2023/07/27 02:06:03;;;;;;;25.43;23.83;;;;;;;;;;5098387;28;20454;-87
2023/07/27 02:08:30;;;;;;;25.30;23.70;;;;;;;;;;5099053;28;20404;-88
2023/07/27 02:10:59;;;;;;;25.60;23.80;;;;;;;;;;5098710;28;20867;-86
2023/07/27 02:13:28;;;;;;;24.57;23.07;;;;;;;;;;5098083;28;20455;-87
2023/07/27 02:15:57;;;;;;;25.23;23.73;;;;;;;;;;5099389;28;20449;-87
2023/07/27 02:18:25;;;;;;;25.90;24.20;;;;;;;;;;5098348;28;20445;-87
2023/07/27 02:20:52;;;;;;;25.97;24.07;;;;;;;;;;5098406;28;20448;-87
2023/07/27 02:23:22;;;;;;;25.70;24.03;;;;;;;;;;5098826;28;20440;-87
2023/07/27 02:25:49;;;;;;;25.30;23.60;;;;;;;;;;5099259;28;21317;-87
2023/07/27 02:28:16;;;;;;;24.90;23.23;;;;;;;;;;5098141;28;20444;-88
2023/07/27 02:30:43;;;;;;;25.40;23.90;;;;;;;;;;5098226;28;20453;-87
2023/07/27 02:33:10;;;;;;;25.60;24.00;;;;;;;;;;5098882;28;20558;-87
2023/07/27 02:35:37;;;;;;;24.90;23.30;;;;;;;;;;5098714;28;20467;-87
2023/07/27 02:38:04;;;;;;;24.20;22.80;;;;;;;;;;5099285;28;20419;-87
2023/07/27 02:40:33;;;;;;;24.97;23.47;;;;;;;;;;5098739;28;20435;-86
2023/07/27 02:43:00;;;;;;;24.50;22.93;;;;;;;;;;5099064;28;20442;-86
2023/07/27 02:45:27;;;;;;;25.53;23.73;;;;;;;;;;5099158;28;20490;-87
2023/07/27 02:47:54;;;;;;;23.87;22.47;;;;;;;;;;5098852;28;20440;-88
2023/07/27 02:50:21;;;;;;;24.60;22.73;;;;;;;;;;5098318;28;20423;-87
2023/07/27 02:52:48;;;;;;;25.37;23.67;;;;;;;;;;5098396;28;20451;-87
2023/07/27 02:55:15;;;;;;;26.07;24.33;;;;;;;;;;5098580;28;20764;-87
2023/07/27 02:57:44;;;;;;;23.70;22.20;;;;;;;;;;5099493;28;20423;-87
2023/07/27 03:00:11;;;;;;;23.93;22.43;;;;;;;;;;5098743;28;20457;-87
2023/07/27 03:02:38;;;;;;;23.73;22.30;;;;;;;;;;5098750;28;20470;-86
2023/07/27 03:05:06;;;;;;;24.60;23.03;;;;;;;;;;5099291;28;20487;-87
2023/07/27 03:07:33;;;;;;;25.17;23.37;;;;;;;;;;5098920;28;20412;-87
2023/07/27 03:10:00;;;;;;;23.20;21.80;;;;;;;;;;5098021;28;20421;-86
2023/07/27 03:12:27;;;;;;;23.87;22.47;;;;;;;;;;5097473;28;20485;-87
2023/07/27 03:14:56;;;;;;;23.17;21.77;;;;;;;;;;5097757;28;20427;-87
2023/07/27 03:17:23;;;;;;;23.97;22.57;;;;;;;;;;5097920;28;20431;-86
2023/07/27 03:19:50;;;;;;;24.83;23.03;;;;;;;;;;5097586;28;20431;-86
2023/07/27 03:22:17;;;;;;;24.30;22.90;;;;;;;;;;5098109;28;20473;-87
2023/07/27 03:24:44;;;;;;;24.30;22.50;;;;;;;;;;5099501;28;20447;-87
2023/07/27 03:27:12;;;;;;;23.87;22.27;;;;;;;;;;5102035;28;20432;-87
2023/07/27 03:29:39;;;;;;;23.23;21.90;;;;;;;;;;5101354;28;20434;-85
2023/07/27 03:32:08;;;;;;;23.80;22.27;;;;;;;;;;5101482;28;20436;-87
2023/07/27 03:34:35;;;;;;;23.87;22.53;;;;;;;;;;5100488;28;20451;-86
2023/07/27 03:37:03;;;;;;;24.00;22.50;;;;;;;;;;5101122;28;20424;-88
2023/07/27 03:39:30;;;;;;;24.53;23.00;;;;;;;;;;5101105;28;20431;-85
2023/07/27 03:41:57;;;;;;;23.87;22.20;;;;;;;;;;5101515;28;20476;-87
2023/07/27 03:44:24;;;;;;;24.03;22.53;;;;;;;;;;5101157;28;21248;-87
2023/07/27 03:46:51;;;;;;;23.47;21.93;;;;;;;;;;5101007;28;20529;-87
2023/07/27 03:49:19;;;;;;;24.63;23.10;;;;;;;;;;5101110;28;20412;-86
2023/07/27 03:51:46;;;;;;;23.80;22.30;;;;;;;;;;5101652;28;20439;-87
2023/07/27 03:54:13;;;;;;;23.17;21.77;;;;;;;;;;5100897;28;20439;-86
2023/07/27 03:56:40;;;;;;;23.90;22.50;;;;;;;;;;5101592;28;20430;-87
2023/07/27 03:59:08;;;;;;;23.57;21.93;;;;;;;;;;5100402;28;20457;-87
2023/07/27 04:01:35;;;;;;;24.10;22.70;;;;;;;;;;5101624;28;20450;-87
2023/07/27 04:04:02;;;;;;;23.20;21.80;;;;;;;;;;5101802;28;20411;-88
2023/07/27 04:06:30;;;;;;;24.33;22.60;;;;;;;;;;5101614;28;20444;-87
2023/07/27 04:08:57;;;;;;;23.03;21.73;;;;;;;;;;5101604;28;20535;-87
2023/07/27 04:11:25;;;;;;;24.20;22.60;;;;;;;;;;5101730;28;20432;-85
2023/07/27 04:13:52;;;;;;;23.23;21.63;;;;;;;;;;5101886;28;20450;-86
2023/07/27 04:16:19;;;;;;;24.37;22.77;;;;;;;;;;5101179;28;20438;-87
2023/07/27 04:18:46;;;;;;;24.83;23.40;;;;;;;;;;5100593;28;20792;-86
2023/07/27 04:21:13;;;;;;;24.97;23.37;;;;;;;;;;5100958;28;20438;-87
2023/07/27 04:23:41;;;;;;;24.00;22.50;;;;;;;;;;5101040;28;20436;-88
2023/07/27 04:26:08;;;;;;;24.13;22.73;;;;;;;;;;5100472;28;20464;-87
2023/07/27 04:28:35;;;;;;;23.50;22.00;;;;;;;;;;5100613;28;20431;-86
2023/07/27 04:31:02;;;;;;;23.57;22.10;;;;;;;;;;5101439;28;20443;-87
2023/07/27 04:33:30;;;;;;;23.73;22.10;;;;;;;;;;5102171;28;21075;-84
2023/07/27 04:35:57;;;;;;;23.87;22.57;;;;;;;;;;5099233;28;20465;-82
2023/07/27 04:38:24;;;;;;;24.10;22.50;;;;;;;;;;5100570;28;20515;-82
2023/07/27 04:40:53;;;;;;;23.50;21.97;;;;;;;;;;5100617;28;20465;-82
2023/07/27 04:43:20;;;;;;;23.40;21.90;;;;;;;;;;5100501;28;20427;-82
2023/07/27 04:45:47;;;;;;;24.00;22.53;;;;;;;;;;5099001;28;20459;-81
2023/07/27 04:48:14;;;;;;;24.60;22.57;;;;;;;;;;5101239;28;20456;-82
2023/07/27 04:50:41;;;;;;;24.17;22.30;;;;;;;;;;5100219;28;20462;-83
2023/07/27 04:53:09;;;;;;;24.60;22.90;;;;;;;;;;5100734;28;20479;-83
2023/07/27 04:55:36;;;;;;;23.90;22.40;;;;;;;;;;5099111;28;20404;-82
2023/07/27 04:58:04;;;;;;;24.17;22.60;;;;;;;;;;5099656;28;20503;-84
2023/07/27 05:00:31;;;;;;;24.13;22.67;;;;;;;;;;5098086;28;20941;-82
2023/07/27 05:02:59;;;;;;;24.13;22.73;;;;;;;;;;5100663;28;20423;-82
2023/07/27 05:05:26;;;;;;;25.80;23.67;;;;;;;;;;5100223;28;20547;-82
2023/07/27 05:07:53;;;;;;;23.40;21.83;;;;;;;;;;5100147;28;20439;-84
2023/07/27 05:10:19;;;;;;;24.67;22.57;;;;;;;;;;5099545;28;20420;-82
2023/07/27 05:12:46;;;;;;;26.07;24.00;;;;;;;;;;5100061;28;20464;-83
2023/07/27 05:15:14;;;;;;;25.80;24.10;;;;;;;;;;5100327;28;20485;-83
2023/07/27 05:17:41;;;;;;;26.63;24.73;;;;;;;;;;5099693;28;20461;-82
2023/07/27 05:20:09;;;;;;;27.00;25.23;;;;;;;;;;5098561;28;20506;-83
2023/07/27 05:22:36;;;;;;;25.90;24.20;;;;;;;;;;5099398;28;20959;-83
2023/07/27 05:25:04;;;;;;;25.80;24.30;;;;;;;;;;5100422;28;20817;-83
2023/07/27 05:27:31;;;;;;;26.80;25.10;;;;;;;;;;5098750;28;20572;-83
2023/07/27 05:29:58;;;;;;;26.37;24.67;;;;;;;;;;5098693;28;20762;-82
2023/07/27 05:32:27;;;;;;;26.83;25.13;;;;;;;;;;5098469;28;20472;-82
2023/07/27 05:34:54;;;;;;;27.10;25.30;;;;;;;;;;5098920;28;20464;-84
2023/07/27 05:37:21;;;;;;;25.33;23.73;;;;;;;;;;5098381;28;20496;-83
2023/07/27 05:39:48;;;;;;;28.17;26.27;;;;;;;;;;5098934;28;20427;-82
2023/07/27 05:42:15;;;;;;;26.17;24.47;;;;;;;;;;5098442;28;20464;-82
2023/07/27 05:44:42;;;;;;;26.83;25.13;;;;;;;;;;5098994;28;20435;-83
2023/07/27 05:47:09;;;;;;;27.13;25.30;;;;;;;;;;5098464;28;20475;-84
2023/07/27 05:49:38;;;;;;;26.97;25.07;;;;;;;;;;5098323;28;20432;-83
2023/07/27 05:52:05;;;;;;;27.37;25.13;;;;;;;;;;5098648;28;20874;-82
2023/07/27 05:54:32;;;;;;;26.43;24.93;;;;;;;;;;5099162;28;20472;-84
2023/07/27 05:56:59;;;;;;;26.70;25.20;;;;;;;;;;5098933;28;20438;-85
2023/07/27 05:59:27;;;;;;;27.53;25.80;;;;;;;;;;5099329;28;20414;-82
2023/07/27 06:01:54;;;;;;;27.77;26.07;;;;;;;;;;5099188;28;20939;-84
2023/07/27 06:04:23;;;;;;;27.23;25.13;;;;;;;;;;5099511;28;20453;-84
2023/07/27 06:06:53;;;;;;;26.43;24.63;;;;;;;;;;5099797;28;20467;-83
2023/07/27 06:09:20;;;;;;;27.77;25.77;;;;;;;;;;5098993;28;20488;-83
2023/07/27 06:11:47;;;;;;;25.23;23.63;;;;;;;;;;5098085;28;20455;-84
2023/07/27 06:14:14;;;;;;;26.50;24.80;;;;;;;;;;5098810;28;20457;-84
2023/07/27 06:16:41;;;;;;;27.00;25.40;;;;;;;;;;5099894;28;20423;-83
2023/07/27 06:19:08;;;;;;;25.63;24.13;;;;;;;;;;5097516;28;21016;-82
2023/07/27 06:21:35;;;;;;;27.27;25.40;;;;;;;;;;5098882;28;20464;-83
2023/07/27 06:24:04;;;;;;;26.83;25.10;;;;;;;;;;5098961;28;20436;-84
2023/07/27 06:26:31;;;;;;;26.20;24.60;;;;;;;;;;5099143;28;20473;-83
2023/07/27 06:28:59;;;;;;;27.17;25.40;;;;;;;;;;5097616;28;20447;-82
2023/07/27 06:31:26;;;;;;;26.00;24.30;;;;;;;;;;5097768;28;20515;-82
2023/07/27 06:33:53;;;;;;;24.97;23.47;;;;;;;;;;5098699;28;20414;-82
2023/07/27 06:36:20;;;;;;;26.93;24.83;;;;;;;;;;5098710;28;20415;-82
2023/07/27 06:38:47;;;;;;;24.90;23.30;;;;;;;;;;5098121;28;20789;-83
2023/07/27 06:41:17;;;;;;;24.97;23.50;;;;;;;;;;5097851;28;20463;-84
2023/07/27 06:43:44;;;;;;;25.53;23.73;;;;;;;;;;5098011;28;20481;-83
2023/07/27 06:46:11;;;;;;;24.00;22.30;;;;;;;;;;5098715;28;20534;-83
2023/07/27 06:48:38;;;;;;;23.87;22.47;;;;;;;;;;5098487;28;20468;-83
2023/07/27 06:51:05;;;;;;;24.23;22.63;;;;;;;;;;5098473;28;20489;-81
2023/07/27 06:53:32;;;;;;;22.90;21.40;;;;;;;;;;5099014;28;20479;-82
2023/07/27 06:55:59;;;;;;;23.33;22.03;;;;;;;;;;5099082;28;20521;-81
2023/07/27 06:58:27;;;;;;;23.30;21.87;;;;;;;;;;5099065;28;20428;-82
2023/07/27 07:00:55;;;;;;;23.30;21.90;;;;;;;;;;5102633;28;20593;-84
2023/07/27 07:03:22;;;;;;;22.30;21.00;;;;;;;;;;5102478;28;20438;-82
2023/07/27 07:05:49;;;;;;;22.90;21.40;;;;;;;;;;5103022;28;20415;-82
2023/07/27 07:08:16;;;;;;;23.10;21.80;;;;;;;;;;5102494;28;20516;-83
2023/07/27 07:10:43;;;;;;;23.13;21.47;;;;;;;;;;5103325;28;20493;-83
2023/07/27 07:13:12;;;;;;;23.10;21.60;;;;;;;;;;5102711;28;20431;-82
2023/07/27 07:15:40;;;;;;;22.47;20.87;;;;;;;;;;5102829;28;20439;-82
2023/07/27 07:18:08;;;;;;;23.63;22.17;;;;;;;;;;5102627;28;20460;-83
2023/07/27 07:20:35;;;;;;;23.40;22.00;;;;;;;;;;5102751;28;20499;-81
2023/07/27 07:23:02;;;;;;;25.13;23.73;;;;;;;;;;5102920;28;20449;-83
2023/07/27 07:25:29;;;;;;;23.73;22.23;;;;;;;;;;5101797;28;20448;-83
2023/07/27 07:27:56;;;;;;;23.87;22.17;;;;;;;;;;5101120;28;21231;-82
2023/07/27 07:30:23;;;;;;;24.93;23.10;;;;;;;;;;5100977;28;20445;-83
2023/07/27 07:32:53;;;;;;;24.87;23.37;;;;;;;;;;5100755;28;20423;-83
2023/07/27 07:35:20;;;;;;;25.23;23.57;;;;;;;;;;5100938;28;20456;-83
2023/07/27 07:37:49;;;;;;;25.00;23.50;;;;;;;;;;5102844;28;20452;-83
2023/07/27 07:40:18;;;;;;;24.77;23.10;;;;;;;;;;5102243;28;20527;-82
2023/07/27 07:42:47;;;;;;;25.13;23.63;;;;;;;;;;5102034;28;20463;-82
2023/07/27 07:45:14;;;;;;;26.17;24.47;;;;;;;;;;5102049;28;20535;-83
2023/07/27 07:47:41;;;;;;;24.77;23.20;;;;;;;;;;5102059;28;20489;-82
2023/07/27 07:50:10;;;;;;;25.90;24.20;;;;;;;;;;5102224;28;20455;-83
2023/07/27 07:52:37;;;;;;;25.50;23.80;;;;;;;;;;5101290;28;20490;-82
2023/07/27 07:55:06;;;;;;;25.40;23.70;;;;;;;;;;5102163;28;20514;-81
2023/07/27 07:57:33;;;;;;;26.97;24.90;;;;;;;;;;5102635;28;20424;-82
2023/07/27 08:00:01;;;;;;;26.77;24.43;;;;;;;;;;5101587;28;20460;-83
2023/07/27 08:02:28;;;;;;;26.27;24.30;;;;;;;;;;5101791;28;20463;-82
2023/07/27 08:04:55;;;;;;;27.60;25.80;;;;;;;;;;5102466;28;20530;-82
2023/07/27 08:07:23;;;;;;;27.70;25.53;;;;;;;;;;5101910;28;20455;-81
2023/07/27 08:09:50;;;;;;;28.30;26.10;;;;;;;;;;5101627;28;20418;-82
2023/07/27 08:12:18;;;;;;;28.50;26.27;;;;;;;;;;5099926;28;20484;-82
2023/07/27 08:14:45;;;;;;;30.00;28.20;;;;;;;;;;5101454;28;20476;-83
2023/07/27 08:17:12;;;;;;;29.40;27.50;;;;;;;;;;5101727;28;20476;-83
2023/07/27 08:19:39;;;;;;;27.97;26.27;;;;;;;;;;5101017;28;20423;-83
2023/07/27 08:22:06;;;;;;;29.87;27.87;;;;;;;;;;5100028;28;20480;-82
2023/07/27 08:24:35;;;;;;;30.03;27.60;;;;;;;;;;5099869;28;20433;-84
2023/07/27 08:27:04;;;;;;;30.90;28.80;;;;;;;;;;5100550;28;20485;-83
2023/07/27 08:29:31;;;;;;;30.37;28.47;;;;;;;;;;5100311;28;20423;-84
2023/07/27 08:31:58;;;;;;;30.53;28.50;;;;;;;;;;5080995;28;20448;-87
2023/07/27 08:34:25;;;;;;;31.90;29.80;;;;;;;;;;5079317;28;20448;-81
2023/07/27 08:36:52;;;;;;;31.70;29.60;;;;;;;;;;5080741;28;20499;-83
2023/07/27 08:39:19;;;;;;;33.67;30.63;;;;;;;;;;5080316;28;20501;-82
2023/07/27 08:41:48;;;;;;;33.40;30.80;;;;;;;;;;5079612;28;20483;-83
2023/07/27 08:44:16;;;;;;;32.20;29.90;;;;;;;;;;5079935;28;20469;-83
2023/07/27 08:46:43;;;;;;;32.13;29.70;;;;;;;;;;5079459;28;20462;-82
2023/07/27 08:49:10;;;;;;;32.70;30.50;;;;;;;;;;5079090;28;20436;-83
2023/07/27 08:51:39;;;;;;;32.30;30.20;;;;;;;;;;5078390;28;21087;-84
2023/07/27 08:54:06;;;;;;;31.57;29.67;;;;;;;;;;5077895;28;20943;-85
2023/07/27 08:56:33;;;;;;;31.97;29.73;;;;;;;;;;5078459;28;20428;-84
2023/07/27 08:59:02;;;;;;;31.63;29.63;;;;;;;;;;5076728;28;20448;-88
2023/07/27 09:01:32;;;;;;;31.80;29.73;;;;;;;;;;5077261;28;20425;-81
2023/07/27 09:03:59;;;;;;;31.80;29.80;;;;;;;;;;5076072;28;20787;-82
2023/07/27 09:06:39;;;;;;;31.13;28.93;;;;;;;;;;5078456;28;20817;-88
2023/07/27 09:09:15;;;;;;;33.87;31.67;;;;;;;;;;5077983;28;20420;-81
2023/07/27 09:11:43;;;;;;;32.80;30.67;;;;;;;;;;5077520;28;20464;-84
2023/07/27 09:14:11;;;;;;;31.03;28.90;;;;;;;;;;5077927;28;20446;-88
2023/07/27 09:16:38;;;;;;;33.03;30.80;;;;;;;;;;5077358;28;20438;-87
2023/07/27 09:19:07;;;;;;;31.67;29.80;;;;;;;;;;5076807;28;20433;-88
2023/07/27 09:21:39;;;;;;;32.00;30.07;;;;;;;;;;5076717;28;20485;-88
2023/07/27 09:24:09;;;;;;;34.27;32.07;;;;;;;;;;5077519;28;20423;-90
2023/07/27 09:26:37;;;;;;;31.40;29.40;;;;;;;;;;5077721;28;20397;-84
2023/07/27 09:29:04;;;;;;;32.43;30.37;;;;;;;;;;5077221;28;20573;-85
2023/07/27 09:31:35;;;;;;;32.43;30.43;;;;;;;;;;5077705;28;20448;-85
2023/07/27 09:34:05;;;;;;;32.00;30.10;;;;;;;;;;5077945;28;20436;-84
2023/07/27 09:36:32;;;;;;;32.80;31.00;;;;;;;;;;5076701;28;20460;-84
2023/07/27 09:38:59;;;;;;;34.23;32.30;;;;;;;;;;5085045;28;20505;-83
2023/07/27 09:41:26;;;;;;;33.03;31.07;;;;;;;;;;5098077;28;20455;-86
2023/07/27 09:43:57;;;;;;;33.27;31.37;;;;;;;;;;5098217;28;20443;-83
2023/07/27 09:46:26;;;;;;;33.77;31.87;;;;;;;;;;5099944;28;20437;-90
2023/07/27 09:48:54;;;;;;;34.53;32.50;;;;;;;;;;5096995;28;20572;-82
2023/07/27 09:51:23;;;;;;;34.63;32.40;;;;;;;;;;5096438;28;20438;-85
2023/07/27 09:53:52;;;;;;;34.13;32.23;;;;;;;;;;5096360;28;20780;-86
2023/07/27 09:56:19;;;;;;;34.80;32.90;;;;;;;;;;5095788;28;21278;-87
2023/07/27 09:58:47;;;;;;;34.20;32.20;;;;;;;;;;5095982;28;20439;-82
2023/07/27 10:01:15;;;;;;;32.30;30.70;;;;;;;;;;5096527;28;20447;-89
2023/07/27 10:03:44;;;;;;;34.07;31.93;;;;;;;;;;5097696;28;20520;-88
2023/07/27 10:06:13;;;;;;;33.57;31.77;;;;;;;;;;5097412;28;20430;-87
2023/07/27 10:08:42;;;;;;;33.47;31.67;;;;;;;;;;5096244;28;20500;-88
2023/07/27 10:11:09;;;;;;;34.23;32.50;;;;;;;;;;5097249;28;20486;-89
2023/07/27 10:13:38;;;;;;;33.97;32.27;;;;;;;;;;5098122;28;20415;-88
2023/07/27 10:16:10;;;;;;;36.67;34.57;;;;;;;;;;5098887;28;20471;-88
2023/07/27 10:18:40;;;;;;;34.43;32.53;;;;;;;;;;5099428;28;20449;-83
2023/07/27 10:21:28;;;;;;;36.67;34.57;;;;;;;;;;5098956;28;20459;-88
2023/07/27 10:23:56;;;;;;;35.97;33.30;;;;;;;;;;5097311;28;20431;-87
2023/07/27 10:26:43;;;;;;;34.70;32.90;;;;;;;;;;5095387;28;20449;-87
2023/07/27 10:29:14;;;;;;;35.77;33.93;;;;;;;;;;5098026;28;20485;-87
2023/07/27 10:31:43;;;;;;;35.50;33.80;;;;;;;;;;5097693;28;20535;-86
2023/07/27 10:34:14;;;;;;;34.20;32.40;;;;;;;;;;5098233;28;20957;-88
2023/07/27 10:36:52;;;;;;;35.23;33.53;;;;;;;;;;5100448;28;20395;-88
2023/07/27 10:39:20;;;;;;;36.37;34.50;;;;;;;;;;5100600;28;20448;-85
2023/07/27 10:41:58;;;;;;;32.80;31.27;;;;;;;;;;5101356;28;20512;-86
2023/07/27 10:44:26;;;;;;;35.50;33.70;;;;;;;;;;5099606;28;20538;-88
2023/07/27 10:46:55;;;;;;;35.70;33.90;;;;;;;;;;5098882;28;20801;-88
2023/07/27 10:49:23;;;;;;;33.40;31.70;;;;;;;;;;5097658;28;20459;-88
2023/07/27 10:51:51;;;;;;;33.00;31.30;;;;;;;;;;5098304;28;20764;-87
2023/07/27 10:54:18;;;;;;;34.47;32.77;;;;;;;;;;5098773;28;20419;-87
2023/07/27 10:56:45;;;;;;;46.00;43.70;;;;;;;;;;5099799;28;20418;-84
2023/07/27 10:59:13;;;;;;;36.83;35.13;;;;;;;;;;5101953;28;20493;-86
2023/07/27 11:01:41;;;;;;;44.93;42.40;;;;;;;;;;5100351;28;20919;-86
2023/07/27 11:04:08;;;;;;;44.47;42.23;;;;;;;;;;5099894;28;20495;-83
2023/07/27 11:06:42;;;;;;;43.80;41.70;;;;;;;;;;5099581;28;20439;-83
2023/07/27 11:09:14;;;;;;;43.90;41.70;;;;;;;;;;5101446;28;20567;-83
2023/07/27 11:11:41;;;;;;;43.50;41.40;;;;;;;;;;5101006;28;20842;-81
2023/07/27 11:14:08;;;;;;;43.73;41.73;;;;;;;;;;5100686;28;20419;-84
2023/07/27 11:16:39;;;;;;;42.80;40.80;;;;;;;;;;5100600;28;20919;-83
2023/07/27 11:19:07;;;;;;;43.10;40.90;;;;;;;;;;5100589;28;20426;-82
2023/07/27 11:21:38;;;;;;;40.57;38.67;;;;;;;;;;5100072;28;20491;-82
2023/07/27 11:24:05;;;;;;;40.77;38.87;;;;;;;;;;5100896;28;20416;-80
2023/07/27 11:26:34;;;;;;;42.33;40.33;;;;;;;;;;5101309;28;20452;-83
2023/07/27 11:29:01;;;;;;;40.47;38.57;;;;;;;;;;5100250;28;20466;-81
2023/07/27 11:31:29;;;;;;;40.87;38.90;;;;;;;;;;5100487;28;20510;-82
2023/07/27 11:33:58;;;;;;;40.97;39.00;;;;;;;;;;5100789;28;20427;-81
2023/07/27 11:36:28;;;;;;;42.70;40.77;;;;;;;;;;5101995;28;20441;-82
2023/07/27 11:38:55;;;;;;;40.93;38.93;;;;;;;;;;5099460;28;20967;-82
2023/07/27 11:41:22;;;;;;;42.93;40.77;;;;;;;;;;5099038;28;20513;-83
2023/07/27 11:43:53;;;;;;;40.20;38.30;;;;;;;;;;5099888;28;20763;-81
2023/07/27 11:46:21;;;;;;;42.93;40.83;;;;;;;;;;5100015;28;20412;-81
2023/07/27 11:48:48;;;;;;;39.27;37.47;;;;;;;;;;5098976;28;20483;-81
2023/07/27 11:51:16;;;;;;;41.70;39.70;;;;;;;;;;5099275;28;20478;-82
2023/07/27 11:53:45;;;;;;;41.00;39.10;;;;;;;;;;5099538;28;20427;-82
2023/07/27 11:56:12;;;;;;;39.10;37.20;;;;;;;;;;5100151;28;20449;-82
2023/07/27 11:58:39;;;;;;;41.60;39.70;;;;;;;;;;5099840;28;20491;-82
2023/07/27 12:01:08;;;;;;;43.77;41.57;;;;;;;;;;5100618;28;20446;-82
2023/07/27 12:03:35;;;;;;;43.27;41.13;;;;;;;;;;5099842;28;20518;-82
2023/07/27 12:06:04;;;;;;;43.80;41.70;;;;;;;;;;5099679;28;20424;-82
2023/07/27 12:08:31;;;;;;;44.63;42.53;;;;;;;;;;5098855;28;20495;-82
2023/07/27 12:11:00;;;;;;;43.30;41.30;;;;;;;;;;5099044;28;20453;-80
2023/07/27 12:13:27;;;;;;;43.53;41.43;;;;;;;;;;5099800;28;20420;-81
2023/07/27 12:15:58;;;;;;;44.73;42.40;;;;;;;;;;5095481;28;20449;-82
2023/07/27 12:18:27;;;;;;;44.50;42.30;;;;;;;;;;5077026;28;20461;-90
2023/07/27 12:20:55;;;;;;;41.83;39.83;;;;;;;;;;5084147;28;20435;-93
2023/07/27 12:23:22;;;;;;;42.27;40.10;;;;;;;;;;5087037;28;20501;-92
2023/07/27 12:25:50;;;;;;;40.57;38.67;;;;;;;;;;5084612;28;20457;-94
2023/07/27 12:28:17;;;;;;;42.63;40.63;;;;;;;;;;5080574;28;20505;-90
2023/07/27 12:30:44;;;;;;;43.23;41.13;;;;;;;;;;5076245;28;20411;-88
2023/07/27 12:33:11;;;;;;;41.57;39.57;;;;;;;;;;5079869;28;20452;-87
2023/07/27 12:35:40;;;;;;;44.10;42.00;;;;;;;;;;5080169;28;20428;-87
2023/07/27 12:38:07;;;;;;;43.73;41.63;;;;;;;;;;5080042;28;20421;-87
2023/07/27 12:40:34;;;;;;;44.20;42.10;;;;;;;;;;5079311;28;20460;-85
2023/07/27 12:43:02;;;;;;;43.83;41.73;;;;;;;;;;5080293;28;20442;-87
2023/07/27 12:45:29;;;;;;;43.40;41.30;;;;;;;;;;5080568;28;20433;-86
2023/07/27 12:47:56;;;;;;;45.87;43.60;;;;;;;;;;5081217;28;20458;-86
2023/07/27 12:50:23;;;;;;;42.97;40.97;;;;;;;;;;5080800;28;20457;-87
2023/07/27 12:52:51;;;;;;;42.60;40.60;;;;;;;;;;5080427;28;20493;-87
2023/07/27 12:55:19;;;;;;;41.90;39.80;;;;;;;;;;5081441;28;20456;-87
2023/07/27 12:57:46;;;;;;;41.27;39.37;;;;;;;;;;5081303;28;20546;-87
2023/07/27 13:00:16;;;;;;;40.50;38.50;;;;;;;;;;5081413;28;20810;-87
2023/07/27 13:02:43;;;;;;;40.33;38.23;;;;;;;;;;5080939;28;20993;-87
2023/07/27 13:05:12;;;;;;;42.43;40.43;;;;;;;;;;5081030;28;20472;-87
2023/07/27 13:07:40;;;;;;;42.00;40.07;;;;;;;;;;5081318;28;20763;-87
2023/07/27 13:10:09;;;;;;;38.30;36.50;;;;;;;;;;5080782;28;21039;-87
2023/07/27 13:12:36;;;;;;;39.73;37.93;;;;;;;;;;5081743;28;20998;-87
2023/07/27 13:15:03;;;;;;;40.67;38.77;;;;;;;;;;5078061;28;20455;-83
2023/07/27 13:17:30;;;;;;;40.17;38.17;;;;;;;;;;5078157;28;20447;-83
2023/07/27 13:19:57;;;;;;;41.00;39.10;;;;;;;;;;5077597;28;20457;-85
2023/07/27 13:22:24;;;;;;;38.37;36.67;;;;;;;;;;5077853;28;21046;-81
2023/07/27 13:24:52;;;;;;;39.30;37.40;;;;;;;;;;5077044;28;20473;-85
2023/07/27 13:27:20;;;;;;;37.03;35.33;;;;;;;;;;5077640;28;20446;-83
2023/07/27 13:29:47;;;;;;;38.27;36.47;;;;;;;;;;5077719;28;20481;-82
2023/07/27 13:32:15;;;;;;;37.50;35.80;;;;;;;;;;5077778;28;20444;-83
2023/07/27 13:34:42;;;;;;;40.47;38.67;;;;;;;;;;5078479;28;20508;-85
2023/07/27 13:37:09;;;;;;;38.00;36.23;;;;;;;;;;5098559;28;20427;-87
2023/07/27 13:39:38;;;;;;;37.90;36.20;;;;;;;;;;5096855;28;21115;-86
2023/07/27 13:42:05;;;;;;;34.47;32.87;;;;;;;;;;5098147;28;20479;-85
2023/07/27 13:44:33;;;;;;;34.40;32.80;;;;;;;;;;5098730;28;20457;-85
2023/07/27 13:47:00;;;;;;;33.27;31.60;;;;;;;;;;5099708;28;20424;-85
2023/07/27 13:49:27;;;;;;;33.67;32.17;;;;;;;;;;5099192;28;20884;-85
2023/07/27 13:51:54;;;;;;;35.13;33.43;;;;;;;;;;5100063;28;20474;-85
2023/07/27 13:54:21;;;;;;;33.03;31.53;;;;;;;;;;5100308;28;20502;-85
2023/07/27 13:56:48;;;;;;;34.80;33.10;;;;;;;;;;5098329;28;20448;-85
2023/07/27 13:59:16;;;;;;;36.57;34.97;;;;;;;;;;5102051;28;20459;-85
2023/07/27 14:01:44;;;;;;;34.73;33.13;;;;;;;;;;5101096;28;20469;-85
2023/07/27 14:04:11;;;;;;;34.00;32.40;;;;;;;;;;5099081;28;20429;-84
2023/07/27 14:06:38;;;;;;;36.33;34.63;;;;;;;;;;5091937;28;20474;-80
2023/07/27 14:09:06;;;;;;;33.63;32.13;;;;;;;;;;5079073;28;20456;-83
2023/07/27 14:11:34;;;;;;;34.30;32.60;;;;;;;;;;5079154;28;20452;-83
2023/07/27 14:14:04;;;;;;;36.70;35.00;;;;;;;;;;5077405;28;20820;-92
2023/07/27 14:16:31;;;;;;;37.30;35.40;;;;;;;;;;5078725;28;20523;-80
2023/07/27 14:19:00;;;;;;;44.47;42.37;;;;;;;;;;5078891;28;20444;-81
2023/07/27 14:21:27;;;;;;;43.50;41.40;;;;;;;;;;5080765;28;20451;-81